sensor_id;sensor_type;location;lat;lon;timestamp;P1;durP1;ratioP1;P2;durP2;ratioP2
51921;SDS011;37948;53.260;6.394;2022-11-13T00:00:55;18.42;;;13.60;;
51921;SDS011;37948;53.260;6.394;2022-11-13T00:03:20;22.48;;;17.85;;
51921;SDS011;37948;53.260;6.394;2022-11-13T00:05:46;19.80;;;15.75;;
51921;SDS011;37948;53.260;6.394;2022-11-13T00:08:12;22.98;;;16.58;;
51921;SDS011;37948;53.260;6.394;2022-11-13T00:10:38;29.30;;;22.40;;
51921;SDS011;37948;53.260;6.394;2022-11-13T00:13:03;26.17;;;19.60;;
51921;SDS011;37948;53.260;6.394;2022-11-13T00:15:29;22.23;;;15.73;;
51921;SDS011;37948;53.260;6.394;2022-11-13T00:17:55;17.45;;;13.77;;
51921;SDS011;37948;53.260;6.394;2022-11-13T00:20:24;18.05;;;13.15;;
51921;SDS011;37948;53.260;6.394;2022-11-13T00:22:49;21.67;;;14.32;;
51921;SDS011;37948;53.260;6.394;2022-11-13T00:25:15;20.67;;;15.23;;
51921;SDS011;37948;53.260;6.394;2022-11-13T00:27:40;21.13;;;14.77;;
51921;SDS011;37948;53.260;6.394;2022-11-13T00:30:06;19.80;;;14.40;;
51921;SDS011;37948;53.260;6.394;2022-11-13T00:32:32;18.85;;;14.00;;
51921;SDS011;37948;53.260;6.394;2022-11-13T00:34:57;18.17;;;14.50;;
51921;SDS011;37948;53.260;6.394;2022-11-13T00:37:23;16.98;;;13.50;;
51921;SDS011;37948;53.260;6.394;2022-11-13T00:39:49;16.55;;;13.43;;
51921;SDS011;37948;53.260;6.394;2022-11-13T00:42:14;16.05;;;13.73;;
51921;SDS011;37948;53.260;6.394;2022-11-13T00:44:40;18.38;;;14.57;;
51921;SDS011;37948;53.260;6.394;2022-11-13T00:47:06;15.95;;;13.75;;
51921;SDS011;37948;53.260;6.394;2022-11-13T00:49:31;18.65;;;13.73;;
51921;SDS011;37948;53.260;6.394;2022-11-13T00:51:57;20.17;;;13.57;;
51921;SDS011;37948;53.260;6.394;2022-11-13T00:54:24;17.63;;;14.35;;
51921;SDS011;37948;53.260;6.394;2022-11-13T00:56:50;22.45;;;13.35;;
51921;SDS011;37948;53.260;6.394;2022-11-13T00:59:15;16.95;;;13.63;;
51921;SDS011;37948;53.260;6.394;2022-11-13T01:01:41;23.85;;;14.30;;
51921;SDS011;37948;53.260;6.394;2022-11-13T01:04:06;18.38;;;13.75;;
51921;SDS011;37948;53.260;6.394;2022-11-13T01:06:32;19.45;;;13.15;;
51921;SDS011;37948;53.260;6.394;2022-11-13T01:08:57;20.92;;;14.52;;
51921;SDS011;37948;53.260;6.394;2022-11-13T01:11:25;18.60;;;14.30;;
51921;SDS011;37948;53.260;6.394;2022-11-13T01:13:52;18.40;;;13.77;;
51921;SDS011;37948;53.260;6.394;2022-11-13T01:16:20;19.30;;;14.52;;
51921;SDS011;37948;53.260;6.394;2022-11-13T01:18:48;19.60;;;14.40;;
51921;SDS011;37948;53.260;6.394;2022-11-13T01:21:15;17.65;;;14.38;;
51921;SDS011;37948;53.260;6.394;2022-11-13T01:23:42;25.15;;;18.52;;
51921;SDS011;37948;53.260;6.394;2022-11-13T01:28:42;38.72;;;29.65;;
51921;SDS011;37948;53.260;6.394;2022-11-13T01:31:10;45.55;;;36.33;;
51921;SDS011;37948;53.260;6.394;2022-11-13T01:33:37;48.58;;;38.85;;
51921;SDS011;37948;53.260;6.394;2022-11-13T01:36:04;46.00;;;36.55;;
51921;SDS011;37948;53.260;6.394;2022-11-13T01:38:32;39.92;;;32.72;;
51921;SDS011;37948;53.260;6.394;2022-11-13T01:40:58;36.83;;;28.42;;
51921;SDS011;37948;53.260;6.394;2022-11-13T01:43:28;32.50;;;24.83;;
51921;SDS011;37948;53.260;6.394;2022-11-13T01:48:21;27.65;;;22.20;;
51921;SDS011;37948;53.260;6.394;2022-11-13T01:50:48;26.95;;;21.15;;
51921;SDS011;37948;53.260;6.394;2022-11-13T01:53:13;26.30;;;21.02;;
51921;SDS011;37948;53.260;6.394;2022-11-13T01:55:39;31.23;;;24.50;;
51921;SDS011;37948;53.260;6.394;2022-11-13T01:58:05;34.10;;;27.15;;
51921;SDS011;37948;53.260;6.394;2022-11-13T02:00:34;41.15;;;31.00;;
51921;SDS011;37948;53.260;6.394;2022-11-13T02:03:00;43.72;;;33.38;;
51921;SDS011;37948;53.260;6.394;2022-11-13T02:05:25;44.05;;;32.70;;
51921;SDS011;37948;53.260;6.394;2022-11-13T02:07:51;46.35;;;35.25;;
51921;SDS011;37948;53.260;6.394;2022-11-13T02:10:16;42.00;;;32.83;;
51921;SDS011;37948;53.260;6.394;2022-11-13T02:12:42;38.50;;;29.77;;
51921;SDS011;37948;53.260;6.394;2022-11-13T02:15:12;31.77;;;25.08;;
51921;SDS011;37948;53.260;6.394;2022-11-13T02:20:09;22.63;;;18.15;;
51921;SDS011;37948;53.260;6.394;2022-11-13T02:25:19;20.73;;;16.08;;
51921;SDS011;37948;53.260;6.394;2022-11-13T02:27:47;18.90;;;14.75;;
51921;SDS011;37948;53.260;6.394;2022-11-13T02:30:18;18.52;;;14.82;;
51921;SDS011;37948;53.260;6.394;2022-11-13T02:32:52;18.70;;;14.50;;
51921;SDS011;37948;53.260;6.394;2022-11-13T02:35:20;17.85;;;14.57;;
51921;SDS011;37948;53.260;6.394;2022-11-13T02:38:00;17.65;;;13.88;;
51921;SDS011;37948;53.260;6.394;2022-11-13T02:40:28;18.45;;;14.23;;
51921;SDS011;37948;53.260;6.394;2022-11-13T02:42:54;21.45;;;14.85;;
51921;SDS011;37948;53.260;6.394;2022-11-13T02:45:20;20.80;;;15.55;;
51921;SDS011;37948;53.260;6.394;2022-11-13T02:47:45;19.73;;;14.57;;
51921;SDS011;37948;53.260;6.394;2022-11-13T02:50:12;19.17;;;15.10;;
51921;SDS011;37948;53.260;6.394;2022-11-13T02:52:38;17.20;;;14.38;;
51921;SDS011;37948;53.260;6.394;2022-11-13T02:55:04;19.00;;;14.27;;
51921;SDS011;37948;53.260;6.394;2022-11-13T02:57:30;19.23;;;14.10;;
51921;SDS011;37948;53.260;6.394;2022-11-13T02:59:56;18.02;;;14.45;;
51921;SDS011;37948;53.260;6.394;2022-11-13T03:02:22;18.23;;;13.55;;
51921;SDS011;37948;53.260;6.394;2022-11-13T03:04:48;15.85;;;13.48;;
51921;SDS011;37948;53.260;6.394;2022-11-13T03:07:13;15.95;;;13.90;;
51921;SDS011;37948;53.260;6.394;2022-11-13T03:09:39;19.95;;;15.40;;
51921;SDS011;37948;53.260;6.394;2022-11-13T03:12:08;18.75;;;14.10;;
51921;SDS011;37948;53.260;6.394;2022-11-13T03:14:34;18.83;;;14.50;;
51921;SDS011;37948;53.260;6.394;2022-11-13T03:17:00;22.85;;;13.57;;
51921;SDS011;37948;53.260;6.394;2022-11-13T03:19:26;24.00;;;14.50;;
51921;SDS011;37948;53.260;6.394;2022-11-13T03:21:51;15.73;;;13.43;;
51921;SDS011;37948;53.260;6.394;2022-11-13T03:24:17;20.20;;;14.32;;
51921;SDS011;37948;53.260;6.394;2022-11-13T03:26:43;19.55;;;14.05;;
51921;SDS011;37948;53.260;6.394;2022-11-13T03:29:08;20.15;;;14.20;;
51921;SDS011;37948;53.260;6.394;2022-11-13T03:31:34;22.50;;;14.18;;
51921;SDS011;37948;53.260;6.394;2022-11-13T03:33:59;19.60;;;14.20;;
51921;SDS011;37948;53.260;6.394;2022-11-13T03:36:25;19.55;;;14.10;;
51921;SDS011;37948;53.260;6.394;2022-11-13T03:38:51;18.77;;;15.02;;
51921;SDS011;37948;53.260;6.394;2022-11-13T03:41:16;18.67;;;14.45;;
51921;SDS011;37948;53.260;6.394;2022-11-13T03:43:42;18.73;;;14.20;;
51921;SDS011;37948;53.260;6.394;2022-11-13T03:46:08;20.88;;;14.43;;
51921;SDS011;37948;53.260;6.394;2022-11-13T03:48:33;21.35;;;14.18;;
51921;SDS011;37948;53.260;6.394;2022-11-13T03:50:59;18.27;;;14.20;;
51921;SDS011;37948;53.260;6.394;2022-11-13T03:53:25;18.20;;;13.50;;
51921;SDS011;37948;53.260;6.394;2022-11-13T03:55:51;15.43;;;13.68;;
51921;SDS011;37948;53.260;6.394;2022-11-13T03:58:16;16.70;;;13.88;;
51921;SDS011;37948;53.260;6.394;2022-11-13T04:00:43;18.50;;;13.27;;
51921;SDS011;37948;53.260;6.394;2022-11-13T04:03:09;21.38;;;14.02;;
51921;SDS011;37948;53.260;6.394;2022-11-13T04:05:34;15.48;;;13.45;;
51921;SDS011;37948;53.260;6.394;2022-11-13T04:08:00;18.40;;;14.10;;
51921;SDS011;37948;53.260;6.394;2022-11-13T04:10:26;18.00;;;13.15;;
51921;SDS011;37948;53.260;6.394;2022-11-13T04:12:52;15.90;;;13.27;;
51921;SDS011;37948;53.260;6.394;2022-11-13T04:15:17;18.23;;;13.52;;
51921;SDS011;37948;53.260;6.394;2022-11-13T04:17:43;17.17;;;13.30;;
51921;SDS011;37948;53.260;6.394;2022-11-13T04:20:09;17.88;;;13.93;;
51921;SDS011;37948;53.260;6.394;2022-11-13T04:22:35;18.33;;;13.00;;
51921;SDS011;37948;53.260;6.394;2022-11-13T04:25:01;16.83;;;12.82;;
51921;SDS011;37948;53.260;6.394;2022-11-13T04:27:28;21.45;;;14.27;;
51921;SDS011;37948;53.260;6.394;2022-11-13T04:29:53;19.13;;;13.80;;
51921;SDS011;37948;53.260;6.394;2022-11-13T04:32:19;15.13;;;13.32;;
51921;SDS011;37948;53.260;6.394;2022-11-13T04:34:44;19.35;;;14.00;;
51921;SDS011;37948;53.260;6.394;2022-11-13T04:37:10;16.65;;;13.68;;
51921;SDS011;37948;53.260;6.394;2022-11-13T04:39:35;17.13;;;13.25;;
51921;SDS011;37948;53.260;6.394;2022-11-13T04:42:01;15.88;;;13.23;;
51921;SDS011;37948;53.260;6.394;2022-11-13T04:44:46;18.50;;;13.50;;
51921;SDS011;37948;53.260;6.394;2022-11-13T04:47:11;15.70;;;13.63;;
51921;SDS011;37948;53.260;6.394;2022-11-13T04:49:37;16.45;;;13.60;;
51921;SDS011;37948;53.260;6.394;2022-11-13T04:52:03;16.52;;;13.88;;
51921;SDS011;37948;53.260;6.394;2022-11-13T04:54:28;18.90;;;13.65;;
51921;SDS011;37948;53.260;6.394;2022-11-13T04:56:54;21.27;;;13.60;;
51921;SDS011;37948;53.260;6.394;2022-11-13T04:59:20;15.52;;;12.50;;
51921;SDS011;37948;53.260;6.394;2022-11-13T05:01:45;16.95;;;13.25;;
51921;SDS011;37948;53.260;6.394;2022-11-13T05:04:12;20.42;;;12.82;;
51921;SDS011;37948;53.260;6.394;2022-11-13T05:06:38;16.67;;;13.02;;
51921;SDS011;37948;53.260;6.394;2022-11-13T05:09:04;17.27;;;13.02;;
51921;SDS011;37948;53.260;6.394;2022-11-13T05:11:30;15.98;;;12.55;;
51921;SDS011;37948;53.260;6.394;2022-11-13T05:13:55;17.13;;;12.68;;
51921;SDS011;37948;53.260;6.394;2022-11-13T05:16:21;14.23;;;12.63;;
51921;SDS011;37948;53.260;6.394;2022-11-13T05:18:46;19.77;;;13.48;;
51921;SDS011;37948;53.260;6.394;2022-11-13T05:21:12;16.52;;;12.45;;
51921;SDS011;37948;53.260;6.394;2022-11-13T05:23:38;14.23;;;11.82;;
51921;SDS011;37948;53.260;6.394;2022-11-13T05:26:10;16.55;;;12.68;;
51921;SDS011;37948;53.260;6.394;2022-11-13T05:28:37;18.65;;;12.55;;
51921;SDS011;37948;53.260;6.394;2022-11-13T05:31:10;18.83;;;13.10;;
51921;SDS011;37948;53.260;6.394;2022-11-13T05:33:38;17.13;;;12.90;;
51921;SDS011;37948;53.260;6.394;2022-11-13T05:36:05;14.57;;;11.85;;
51921;SDS011;37948;53.260;6.394;2022-11-13T05:38:35;19.70;;;13.80;;
51921;SDS011;37948;53.260;6.394;2022-11-13T05:41:05;19.55;;;12.73;;
51921;SDS011;37948;53.260;6.394;2022-11-13T05:43:35;13.05;;;11.50;;
51921;SDS011;37948;53.260;6.394;2022-11-13T05:46:02;13.63;;;11.27;;
51921;SDS011;37948;53.260;6.394;2022-11-13T05:48:33;15.00;;;11.50;;
51921;SDS011;37948;53.260;6.394;2022-11-13T05:51:00;15.07;;;12.07;;
51921;SDS011;37948;53.260;6.394;2022-11-13T05:53:30;12.23;;;10.85;;
51921;SDS011;37948;53.260;6.394;2022-11-13T05:56:01;14.38;;;11.65;;
51921;SDS011;37948;53.260;6.394;2022-11-13T05:58:29;15.07;;;11.38;;
51921;SDS011;37948;53.260;6.394;2022-11-13T06:01:08;15.13;;;11.20;;
51921;SDS011;37948;53.260;6.394;2022-11-13T06:03:36;14.80;;;12.15;;
51921;SDS011;37948;53.260;6.394;2022-11-13T06:06:02;17.00;;;12.32;;
51921;SDS011;37948;53.260;6.394;2022-11-13T06:08:29;16.27;;;12.20;;
51921;SDS011;37948;53.260;6.394;2022-11-13T06:10:58;14.57;;;11.52;;
51921;SDS011;37948;53.260;6.394;2022-11-13T06:13:25;16.25;;;12.68;;
51921;SDS011;37948;53.260;6.394;2022-11-13T06:15:51;16.92;;;12.60;;
51921;SDS011;37948;53.260;6.394;2022-11-13T06:18:20;16.58;;;12.60;;
51921;SDS011;37948;53.260;6.394;2022-11-13T06:20:47;16.05;;;12.18;;
51921;SDS011;37948;53.260;6.394;2022-11-13T06:23:13;16.63;;;12.82;;
51921;SDS011;37948;53.260;6.394;2022-11-13T06:25:38;16.23;;;12.68;;
51921;SDS011;37948;53.260;6.394;2022-11-13T06:28:04;14.38;;;11.77;;
51921;SDS011;37948;53.260;6.394;2022-11-13T06:30:30;13.80;;;11.00;;
51921;SDS011;37948;53.260;6.394;2022-11-13T06:32:55;14.73;;;12.07;;
51921;SDS011;37948;53.260;6.394;2022-11-13T06:35:21;14.27;;;10.93;;
51921;SDS011;37948;53.260;6.394;2022-11-13T06:37:46;15.82;;;10.75;;
51921;SDS011;37948;53.260;6.394;2022-11-13T06:40:12;12.07;;;10.77;;
51921;SDS011;37948;53.260;6.394;2022-11-13T06:42:38;13.88;;;10.85;;
51921;SDS011;37948;53.260;6.394;2022-11-13T06:45:04;21.85;;;11.20;;
51921;SDS011;37948;53.260;6.394;2022-11-13T06:47:30;14.93;;;11.88;;
51921;SDS011;37948;53.260;6.394;2022-11-13T06:49:55;16.88;;;11.65;;
51921;SDS011;37948;53.260;6.394;2022-11-13T06:52:21;13.20;;;11.23;;
51921;SDS011;37948;53.260;6.394;2022-11-13T06:54:46;14.30;;;10.82;;
51921;SDS011;37948;53.260;6.394;2022-11-13T06:57:12;14.18;;;11.05;;
51921;SDS011;37948;53.260;6.394;2022-11-13T06:59:38;13.80;;;11.15;;
51921;SDS011;37948;53.260;6.394;2022-11-13T07:02:03;12.75;;;10.63;;
51921;SDS011;37948;53.260;6.394;2022-11-13T07:04:29;14.38;;;10.35;;
51921;SDS011;37948;53.260;6.394;2022-11-13T07:06:55;14.18;;;10.50;;
51921;SDS011;37948;53.260;6.394;2022-11-13T07:09:20;15.95;;;10.75;;
51921;SDS011;37948;53.260;6.394;2022-11-13T07:11:46;15.85;;;11.77;;
51921;SDS011;37948;53.260;6.394;2022-11-13T07:14:11;12.85;;;10.38;;
51921;SDS011;37948;53.260;6.394;2022-11-13T07:16:37;12.93;;;10.40;;
51921;SDS011;37948;53.260;6.394;2022-11-13T07:19:03;15.82;;;11.35;;
51921;SDS011;37948;53.260;6.394;2022-11-13T07:21:29;15.52;;;10.50;;
51921;SDS011;37948;53.260;6.394;2022-11-13T07:23:54;16.20;;;10.05;;
51921;SDS011;37948;53.260;6.394;2022-11-13T07:26:20;14.30;;;10.45;;
51921;SDS011;37948;53.260;6.394;2022-11-13T07:28:46;12.52;;;10.50;;
51921;SDS011;37948;53.260;6.394;2022-11-13T07:31:13;12.45;;;10.73;;
51921;SDS011;37948;53.260;6.394;2022-11-13T07:33:41;15.00;;;10.65;;
51921;SDS011;37948;53.260;6.394;2022-11-13T07:36:07;13.95;;;10.93;;
51921;SDS011;37948;53.260;6.394;2022-11-13T07:38:33;12.90;;;10.20;;
51921;SDS011;37948;53.260;6.394;2022-11-13T07:40:58;15.57;;;11.20;;
51921;SDS011;37948;53.260;6.394;2022-11-13T07:43:25;18.13;;;11.93;;
51921;SDS011;37948;53.260;6.394;2022-11-13T07:45:51;13.90;;;10.85;;
51921;SDS011;37948;53.260;6.394;2022-11-13T07:48:19;12.95;;;11.07;;
51921;SDS011;37948;53.260;6.394;2022-11-13T07:50:45;16.42;;;11.20;;
51921;SDS011;37948;53.260;6.394;2022-11-13T07:53:11;13.90;;;9.85;;
51921;SDS011;37948;53.260;6.394;2022-11-13T07:55:37;15.52;;;11.65;;
51921;SDS011;37948;53.260;6.394;2022-11-13T07:58:03;15.35;;;11.18;;
51921;SDS011;37948;53.260;6.394;2022-11-13T08:00:30;13.88;;;12.10;;
51921;SDS011;37948;53.260;6.394;2022-11-13T08:02:58;14.65;;;11.45;;
51921;SDS011;37948;53.260;6.394;2022-11-13T08:05:28;14.80;;;11.98;;
51921;SDS011;37948;53.260;6.394;2022-11-13T08:07:54;17.38;;;11.65;;
51921;SDS011;37948;53.260;6.394;2022-11-13T08:10:20;14.95;;;11.93;;
51921;SDS011;37948;53.260;6.394;2022-11-13T08:12:45;17.58;;;12.32;;
51921;SDS011;37948;53.260;6.394;2022-11-13T08:15:11;17.08;;;12.35;;
51921;SDS011;37948;53.260;6.394;2022-11-13T08:17:37;14.82;;;11.55;;
51921;SDS011;37948;53.260;6.394;2022-11-13T08:20:03;14.48;;;11.70;;
51921;SDS011;37948;53.260;6.394;2022-11-13T08:22:30;14.60;;;11.45;;
51921;SDS011;37948;53.260;6.394;2022-11-13T08:24:55;15.93;;;11.75;;
51921;SDS011;37948;53.260;6.394;2022-11-13T08:27:21;14.38;;;11.73;;
51921;SDS011;37948;53.260;6.394;2022-11-13T08:29:48;15.95;;;12.32;;
51921;SDS011;37948;53.260;6.394;2022-11-13T08:32:15;17.58;;;11.70;;
51921;SDS011;37948;53.260;6.394;2022-11-13T08:34:41;18.70;;;12.88;;
51921;SDS011;37948;53.260;6.394;2022-11-13T08:37:07;16.15;;;12.27;;
51921;SDS011;37948;53.260;6.394;2022-11-13T08:39:33;18.80;;;11.98;;
51921;SDS011;37948;53.260;6.394;2022-11-13T08:41:59;15.82;;;11.38;;
51921;SDS011;37948;53.260;6.394;2022-11-13T08:44:26;13.88;;;11.52;;
51921;SDS011;37948;53.260;6.394;2022-11-13T08:46:51;15.57;;;11.85;;
51921;SDS011;37948;53.260;6.394;2022-11-13T08:49:17;15.88;;;12.35;;
51921;SDS011;37948;53.260;6.394;2022-11-13T08:51:42;16.58;;;12.18;;
51921;SDS011;37948;53.260;6.394;2022-11-13T08:54:08;14.77;;;12.77;;
51921;SDS011;37948;53.260;6.394;2022-11-13T08:56:33;14.38;;;12.35;;
51921;SDS011;37948;53.260;6.394;2022-11-13T08:58:59;16.90;;;13.50;;
51921;SDS011;37948;53.260;6.394;2022-11-13T09:01:24;17.95;;;12.68;;
51921;SDS011;37948;53.260;6.394;2022-11-13T09:03:50;18.33;;;14.43;;
51921;SDS011;37948;53.260;6.394;2022-11-13T09:06:15;16.08;;;12.43;;
51921;SDS011;37948;53.260;6.394;2022-11-13T09:08:41;18.45;;;12.77;;
51921;SDS011;37948;53.260;6.394;2022-11-13T09:11:07;14.45;;;12.32;;
51921;SDS011;37948;53.260;6.394;2022-11-13T09:13:33;17.77;;;12.48;;
51921;SDS011;37948;53.260;6.394;2022-11-13T09:15:59;16.50;;;13.23;;
51921;SDS011;37948;53.260;6.394;2022-11-13T09:18:26;13.75;;;11.68;;
51921;SDS011;37948;53.260;6.394;2022-11-13T09:20:53;17.00;;;12.63;;
51921;SDS011;37948;53.260;6.394;2022-11-13T09:23:19;16.13;;;11.40;;
51921;SDS011;37948;53.260;6.394;2022-11-13T09:25:46;13.43;;;11.20;;
51921;SDS011;37948;53.260;6.394;2022-11-13T09:28:12;15.25;;;11.27;;
51921;SDS011;37948;53.260;6.394;2022-11-13T09:30:38;11.85;;;10.43;;
51921;SDS011;37948;53.260;6.394;2022-11-13T09:33:04;13.60;;;10.73;;
51921;SDS011;37948;53.260;6.394;2022-11-13T09:35:30;15.25;;;10.75;;
51921;SDS011;37948;53.260;6.394;2022-11-13T09:38:07;14.30;;;11.30;;
51921;SDS011;37948;53.260;6.394;2022-11-13T09:45:58;13.75;;;10.80;;
51921;SDS011;37948;53.260;6.394;2022-11-13T09:48:33;11.82;;;9.85;;
51921;SDS011;37948;53.260;6.394;2022-11-13T09:51:06;20.75;;;9.40;;
51921;SDS011;37948;53.260;6.394;2022-11-13T09:53:44;9.90;;;8.90;;
51921;SDS011;37948;53.260;6.394;2022-11-13T09:56:15;10.90;;;9.73;;
51921;SDS011;37948;53.260;6.394;2022-11-13T10:13:12;12.38;;;10.55;;
51921;SDS011;37948;53.260;6.394;2022-11-13T10:15:41;10.20;;;9.20;;
51921;SDS011;37948;53.260;6.394;2022-11-13T10:20:38;13.00;;;11.50;;
51921;SDS011;37948;53.260;6.394;2022-11-13T10:23:29;17.92;;;14.50;;
51921;SDS011;37948;53.260;6.394;2022-11-13T10:25:59;12.10;;;10.80;;
51921;SDS011;37948;53.260;6.394;2022-11-13T10:28:40;12.50;;;11.20;;
51921;SDS011;37948;53.260;6.394;2022-11-13T10:31:08;12.13;;;10.82;;
51921;SDS011;37948;53.260;6.394;2022-11-13T10:33:35;11.07;;;9.70;;
51921;SDS011;37948;53.260;6.394;2022-11-13T10:36:07;15.48;;;9.88;;
51921;SDS011;37948;53.260;6.394;2022-11-13T10:41:16;11.55;;;10.32;;
51921;SDS011;37948;53.260;6.394;2022-11-13T10:43:50;10.68;;;8.93;;
51921;SDS011;37948;53.260;6.394;2022-11-13T10:46:24;10.13;;;8.38;;
51921;SDS011;37948;53.260;6.394;2022-11-13T10:48:54;9.70;;;8.70;;
51921;SDS011;37948;53.260;6.394;2022-11-13T10:51:34;11.27;;;8.82;;
51921;SDS011;37948;53.260;6.394;2022-11-13T10:54:10;9.93;;;8.93;;
51921;SDS011;37948;53.260;6.394;2022-11-13T10:56:58;10.25;;;9.15;;
51921;SDS011;37948;53.260;6.394;2022-11-13T10:59:39;10.02;;;8.95;;
51921;SDS011;37948;53.260;6.394;2022-11-13T11:02:20;10.65;;;8.55;;
51921;SDS011;37948;53.260;6.394;2022-11-13T11:04:47;10.82;;;9.73;;
51921;SDS011;37948;53.260;6.394;2022-11-13T11:07:16;10.60;;;8.70;;
51921;SDS011;37948;53.260;6.394;2022-11-13T11:09:44;13.02;;;9.15;;
51921;SDS011;37948;53.260;6.394;2022-11-13T11:12:16;13.40;;;9.13;;
51921;SDS011;37948;53.260;6.394;2022-11-13T11:20:25;11.75;;;8.25;;
51921;SDS011;37948;53.260;6.394;2022-11-13T11:23:12;9.75;;;8.75;;
51921;SDS011;37948;53.260;6.394;2022-11-13T11:25:47;12.95;;;8.80;;
51921;SDS011;37948;53.260;6.394;2022-11-13T11:28:30;11.35;;;9.57;;
51921;SDS011;37948;53.260;6.394;2022-11-13T11:44:28;13.13;;;8.38;;
51921;SDS011;37948;53.260;6.394;2022-11-13T11:47:06;16.27;;;12.07;;
51921;SDS011;37948;53.260;6.394;2022-11-13T11:49:38;12.50;;;9.68;;
51921;SDS011;37948;53.260;6.394;2022-11-13T11:57:57;9.52;;;8.52;;
51921;SDS011;37948;53.260;6.394;2022-11-13T12:00:40;12.70;;;9.55;;
51921;SDS011;37948;53.260;6.394;2022-11-13T12:08:58;10.15;;;8.52;;
51921;SDS011;37948;53.260;6.394;2022-11-13T12:11:46;12.07;;;8.75;;
51921;SDS011;37948;53.260;6.394;2022-11-13T12:14:29;13.82;;;8.98;;
51921;SDS011;37948;53.260;6.394;2022-11-13T12:22:31;11.25;;;8.95;;
51921;SDS011;37948;53.260;6.394;2022-11-13T12:25:23;10.00;;;8.35;;
51921;SDS011;37948;53.260;6.394;2022-11-13T12:31:18;11.85;;;8.90;;
51921;SDS011;37948;53.260;6.394;2022-11-13T12:33:58;11.85;;;8.25;;
51921;SDS011;37948;53.260;6.394;2022-11-13T12:36:37;11.60;;;9.05;;
51921;SDS011;37948;53.260;6.394;2022-11-13T12:41:41;12.90;;;10.13;;
51921;SDS011;37948;53.260;6.394;2022-11-13T12:44:23;17.83;;;10.63;;
51921;SDS011;37948;53.260;6.394;2022-11-13T12:46:50;11.10;;;8.93;;
51921;SDS011;37948;53.260;6.394;2022-11-13T12:51:52;13.63;;;10.23;;
51921;SDS011;37948;53.260;6.394;2022-11-13T12:54:48;15.13;;;10.93;;
51921;SDS011;37948;53.260;6.394;2022-11-13T12:57:21;12.85;;;10.20;;
51921;SDS011;37948;53.260;6.394;2022-11-13T12:59:55;13.23;;;9.57;;
51921;SDS011;37948;53.260;6.394;2022-11-13T13:17:59;12.23;;;8.82;;
51921;SDS011;37948;53.260;6.394;2022-11-13T13:20:28;12.65;;;8.10;;
51921;SDS011;37948;53.260;6.394;2022-11-13T13:22:57;10.88;;;8.15;;
51921;SDS011;37948;53.260;6.394;2022-11-13T13:25:33;9.63;;;8.63;;
51921;SDS011;37948;53.260;6.394;2022-11-13T13:28:13;11.90;;;8.82;;
51921;SDS011;37948;53.260;6.394;2022-11-13T13:30:50;10.48;;;8.35;;
51921;SDS011;37948;53.260;6.394;2022-11-13T13:33:19;11.20;;;8.52;;
51921;SDS011;37948;53.260;6.394;2022-11-13T13:39:43;9.40;;;8.23;;
51921;SDS011;37948;53.260;6.394;2022-11-13T13:42:00;10.48;;;8.38;;
51921;SDS011;37948;53.260;6.394;2022-11-13T13:44:54;10.55;;;8.23;;
51921;SDS011;37948;53.260;6.394;2022-11-13T13:47:34;11.93;;;8.98;;
51921;SDS011;37948;53.260;6.394;2022-11-13T13:50:07;10.38;;;8.45;;
51921;SDS011;37948;53.260;6.394;2022-11-13T13:52:40;9.80;;;8.48;;
51921;SDS011;37948;53.260;6.394;2022-11-13T13:55:15;12.00;;;9.02;;
51921;SDS011;37948;53.260;6.394;2022-11-13T13:57:44;11.75;;;8.48;;
51921;SDS011;37948;53.260;6.394;2022-11-13T14:00:11;8.93;;;7.93;;
51921;SDS011;37948;53.260;6.394;2022-11-13T14:02:44;14.02;;;9.07;;
51921;SDS011;37948;53.260;6.394;2022-11-13T14:05:43;9.93;;;8.25;;
51921;SDS011;37948;53.260;6.394;2022-11-13T14:08:02;9.23;;;8.32;;
51921;SDS011;37948;53.260;6.394;2022-11-13T14:10:32;11.65;;;8.40;;
51921;SDS011;37948;53.260;6.394;2022-11-13T14:13:00;9.95;;;7.65;;
51921;SDS011;37948;53.260;6.394;2022-11-13T14:18:03;9.13;;;7.78;;
51921;SDS011;37948;53.260;6.394;2022-11-13T14:20:40;12.50;;;8.85;;
51921;SDS011;37948;53.260;6.394;2022-11-13T14:23:18;11.32;;;8.23;;
51921;SDS011;37948;53.260;6.394;2022-11-13T14:25:49;10.57;;;8.43;;
51921;SDS011;37948;53.260;6.394;2022-11-13T14:28:20;11.13;;;8.60;;
51921;SDS011;37948;53.260;6.394;2022-11-13T14:30:51;11.32;;;8.43;;
51921;SDS011;37948;53.260;6.394;2022-11-13T14:33:22;10.95;;;8.80;;
51921;SDS011;37948;53.260;6.394;2022-11-13T14:35:53;10.15;;;9.07;;
51921;SDS011;37948;53.260;6.394;2022-11-13T14:38:25;11.27;;;8.55;;
51921;SDS011;37948;53.260;6.394;2022-11-13T14:40:53;12.55;;;9.18;;
51921;SDS011;37948;53.260;6.394;2022-11-13T14:43:24;15.55;;;9.43;;
51921;SDS011;37948;53.260;6.394;2022-11-13T14:45:54;12.82;;;10.18;;
51921;SDS011;37948;53.260;6.394;2022-11-13T14:48:23;15.38;;;10.45;;
51921;SDS011;37948;53.260;6.394;2022-11-13T14:50:59;14.02;;;10.77;;
51921;SDS011;37948;53.260;6.394;2022-11-13T14:53:35;11.93;;;10.15;;
51921;SDS011;37948;53.260;6.394;2022-11-13T14:56:07;14.38;;;9.75;;
51921;SDS011;37948;53.260;6.394;2022-11-13T15:01:11;11.38;;;9.85;;
51921;SDS011;37948;53.260;6.394;2022-11-13T15:03:43;12.10;;;9.60;;
51921;SDS011;37948;53.260;6.394;2022-11-13T15:08:43;12.45;;;10.10;;
51921;SDS011;37948;53.260;6.394;2022-11-13T15:11:16;15.25;;;10.27;;
51921;SDS011;37948;53.260;6.394;2022-11-13T15:13:43;11.48;;;9.63;;
51921;SDS011;37948;53.260;6.394;2022-11-13T15:16:17;12.32;;;10.15;;
51921;SDS011;37948;53.260;6.394;2022-11-13T15:21:22;13.13;;;10.77;;
51921;SDS011;37948;53.260;6.394;2022-11-13T15:23:47;11.57;;;10.00;;
51921;SDS011;37948;53.260;6.394;2022-11-13T15:26:13;15.65;;;12.63;;
51921;SDS011;37948;53.260;6.394;2022-11-13T15:28:38;16.77;;;12.68;;
51921;SDS011;37948;53.260;6.394;2022-11-13T15:33:56;13.63;;;11.30;;
51921;SDS011;37948;53.260;6.394;2022-11-13T15:36:21;15.43;;;11.60;;
51921;SDS011;37948;53.260;6.394;2022-11-13T15:38:47;14.15;;;10.20;;
51921;SDS011;37948;53.260;6.394;2022-11-13T15:41:23;13.95;;;10.93;;
51921;SDS011;37948;53.260;6.394;2022-11-13T15:43:53;13.18;;;11.02;;
51921;SDS011;37948;53.260;6.394;2022-11-13T15:46:20;15.27;;;10.52;;
51921;SDS011;37948;53.260;6.394;2022-11-13T15:48:47;13.00;;;10.68;;
51921;SDS011;37948;53.260;6.394;2022-11-13T15:51:15;11.80;;;10.52;;
51921;SDS011;37948;53.260;6.394;2022-11-13T15:53:45;11.77;;;9.77;;
51921;SDS011;37948;53.260;6.394;2022-11-13T15:56:20;12.02;;;10.13;;
51921;SDS011;37948;53.260;6.394;2022-11-13T15:58:48;16.35;;;11.35;;
51921;SDS011;37948;53.260;6.394;2022-11-13T16:01:14;14.98;;;11.90;;
51921;SDS011;37948;53.260;6.394;2022-11-13T16:03:41;16.50;;;10.68;;
51921;SDS011;37948;53.260;6.394;2022-11-13T16:06:10;12.65;;;10.43;;
51921;SDS011;37948;53.260;6.394;2022-11-13T16:08:41;14.90;;;10.27;;
51921;SDS011;37948;53.260;6.394;2022-11-13T16:11:10;11.77;;;9.85;;
51921;SDS011;37948;53.260;6.394;2022-11-13T16:13:38;11.25;;;10.07;;
51921;SDS011;37948;53.260;6.394;2022-11-13T16:16:04;13.23;;;9.68;;
51921;SDS011;37948;53.260;6.394;2022-11-13T16:18:30;17.85;;;10.32;;
51921;SDS011;37948;53.260;6.394;2022-11-13T16:20:56;12.02;;;9.10;;
51921;SDS011;37948;53.260;6.394;2022-11-13T16:23:21;14.35;;;10.05;;
51921;SDS011;37948;53.260;6.394;2022-11-13T16:25:47;13.00;;;9.77;;